sensor_id;sensor_type;location;lat;lon;timestamp;pressure;altitude;pressure_sealevel;temperature;humidity
41306;BME280;27051;50.376;19.152;2023-05-23T00:01:57;97954.77;;;14.65;50.89
41306;BME280;27051;50.376;19.152;2023-05-23T00:04:24;97950.52;;;14.66;50.85
41306;BME280;27051;50.376;19.152;2023-05-23T00:06:50;97945.52;;;14.60;50.90
41306;BME280;27051;50.376;19.152;2023-05-23T00:09:17;97946.56;;;14.57;50.87
41306;BME280;27051;50.376;19.152;2023-05-23T00:11:44;97945.55;;;14.50;50.99
41306;BME280;27051;50.376;19.152;2023-05-23T00:14:12;97945.30;;;14.44;51.17
41306;BME280;27051;50.376;19.152;2023-05-23T00:16:43;97937.59;;;14.33;51.08
41306;BME280;27051;50.376;19.152;2023-05-23T00:19:11;97933.61;;;14.29;51.32
41306;BME280;27051;50.376;19.152;2023-05-23T00:21:38;97931.61;;;14.37;51.28
41306;BME280;27051;50.376;19.152;2023-05-23T00:24:04;97934.64;;;14.44;51.50
41306;BME280;27051;50.376;19.152;2023-05-23T00:26:31;97931.90;;;14.35;51.22
41306;BME280;27051;50.376;19.152;2023-05-23T00:28:58;97931.59;;;14.35;51.54
41306;BME280;27051;50.376;19.152;2023-05-23T00:31:25;97927.84;;;14.37;51.48
41306;BME280;27051;50.376;19.152;2023-05-23T00:33:52;97929.43;;;14.29;51.55
41306;BME280;27051;50.376;19.152;2023-05-23T00:36:18;97927.66;;;14.23;51.45
41306;BME280;27051;50.376;19.152;2023-05-23T00:38:45;97926.45;;;14.13;51.61
41306;BME280;27051;50.376;19.152;2023-05-23T00:41:11;97925.71;;;14.15;51.82
41306;BME280;27051;50.376;19.152;2023-05-23T00:43:38;97924.75;;;14.12;51.60
41306;BME280;27051;50.376;19.152;2023-05-23T00:46:05;97924.42;;;14.11;51.90
41306;BME280;27051;50.376;19.152;2023-05-23T00:48:33;97924.26;;;14.10;51.91
41306;BME280;27051;50.376;19.152;2023-05-23T00:51:00;97927.77;;;14.19;51.98
41306;BME280;27051;50.376;19.152;2023-05-23T00:53:27;97926.61;;;14.25;51.97
41306;BME280;27051;50.376;19.152;2023-05-23T00:55:54;97925.79;;;14.27;51.94
41306;BME280;27051;50.376;19.152;2023-05-23T00:58:21;97926.91;;;14.31;51.99
41306;BME280;27051;50.376;19.152;2023-05-23T01:00:48;97928.94;;;14.34;51.84
41306;BME280;27051;50.376;19.152;2023-05-23T01:03:15;97932.16;;;14.31;52.03
41306;BME280;27051;50.376;19.152;2023-05-23T01:05:41;97929.31;;;14.37;51.97
41306;BME280;27051;50.376;19.152;2023-05-23T01:08:08;97929.13;;;14.24;51.92
41306;BME280;27051;50.376;19.152;2023-05-23T01:10:35;97924.53;;;14.26;52.12
41306;BME280;27051;50.376;19.152;2023-05-23T01:18:17;97920.91;;;14.21;52.15
41306;BME280;27051;50.376;19.152;2023-05-23T01:20:51;97915.42;;;14.14;52.09
41306;BME280;27051;50.376;19.152;2023-05-23T01:23:35;97911.23;;;14.13;52.18
41306;BME280;27051;50.376;19.152;2023-05-23T01:26:21;97912.95;;;14.13;52.36
41306;BME280;27051;50.376;19.152;2023-05-23T01:29:03;97910.13;;;14.16;52.23
41306;BME280;27051;50.376;19.152;2023-05-23T01:31:35;97909.23;;;14.19;52.26
41306;BME280;27051;50.376;19.152;2023-05-23T01:34:02;97908.70;;;14.13;52.09
41306;BME280;27051;50.376;19.152;2023-05-23T01:36:32;97906.10;;;14.03;52.25
41306;BME280;27051;50.376;19.152;2023-05-23T01:38:59;97904.16;;;13.97;52.21
41306;BME280;27051;50.376;19.152;2023-05-23T01:41:25;97907.20;;;13.99;52.29
41306;BME280;27051;50.376;19.152;2023-05-23T01:43:53;97905.69;;;14.01;52.35
41306;BME280;27051;50.376;19.152;2023-05-23T01:46:21;97906.74;;;14.06;52.42
41306;BME280;27051;50.376;19.152;2023-05-23T01:48:49;97907.92;;;14.07;52.29
41306;BME280;27051;50.376;19.152;2023-05-23T01:51:16;97908.91;;;14.06;52.25
41306;BME280;27051;50.376;19.152;2023-05-23T01:53:43;97908.48;;;14.07;52.28
41306;BME280;27051;50.376;19.152;2023-05-23T01:56:10;97908.73;;;14.09;52.31
41306;BME280;27051;50.376;19.152;2023-05-23T01:58:37;97904.29;;;14.00;52.29
41306;BME280;27051;50.376;19.152;2023-05-23T02:01:04;97902.23;;;13.80;52.48
41306;BME280;27051;50.376;19.152;2023-05-23T02:03:31;97902.04;;;13.60;52.50
41306;BME280;27051;50.376;19.152;2023-05-23T02:05:58;97898.09;;;13.54;52.65
41306;BME280;27051;50.376;19.152;2023-05-23T02:08:24;97898.31;;;13.49;52.76
41306;BME280;27051;50.376;19.152;2023-05-23T02:10:51;97900.73;;;13.56;52.97
41306;BME280;27051;50.376;19.152;2023-05-23T02:13:18;97900.42;;;13.56;52.84
41306;BME280;27051;50.376;19.152;2023-05-23T02:15:44;97902.52;;;13.57;52.84
41306;BME280;27051;50.376;19.152;2023-05-23T02:18:11;97897.46;;;13.55;52.86
41306;BME280;27051;50.376;19.152;2023-05-23T02:20:37;97899.38;;;13.53;52.97
41306;BME280;27051;50.376;19.152;2023-05-23T02:23:04;97900.00;;;13.54;53.08
41306;BME280;27051;50.376;19.152;2023-05-23T02:25:31;97901.07;;;13.53;52.99
41306;BME280;27051;50.376;19.152;2023-05-23T02:27:58;97904.08;;;13.53;53.02
41306;BME280;27051;50.376;19.152;2023-05-23T02:30:24;97903.96;;;13.56;53.04
41306;BME280;27051;50.376;19.152;2023-05-23T02:32:51;97900.14;;;13.48;52.95
41306;BME280;27051;50.376;19.152;2023-05-23T02:35:17;97902.27;;;13.40;53.21
41306;BME280;27051;50.376;19.152;2023-05-23T02:37:44;97899.80;;;13.45;53.21
41306;BME280;27051;50.376;19.152;2023-05-23T02:40:11;97899.98;;;13.46;53.23
41306;BME280;27051;50.376;19.152;2023-05-23T02:42:37;97897.50;;;13.52;53.29
41306;BME280;27051;50.376;19.152;2023-05-23T02:45:04;97894.06;;;13.59;53.26
41306;BME280;27051;50.376;19.152;2023-05-23T02:47:31;97892.73;;;13.57;53.13
41306;BME280;27051;50.376;19.152;2023-05-23T02:49:58;97894.05;;;13.48;53.16
41306;BME280;27051;50.376;19.152;2023-05-23T02:52:24;97891.11;;;13.37;53.26
41306;BME280;27051;50.376;19.152;2023-05-23T02:54:51;97890.95;;;13.32;53.40
41306;BME280;27051;50.376;19.152;2023-05-23T02:57:18;97889.84;;;13.35;53.49
41306;BME280;27051;50.376;19.152;2023-05-23T02:59:44;97888.96;;;13.37;53.45
41306;BME280;27051;50.376;19.152;2023-05-23T03:02:11;97887.16;;;13.27;53.51
41306;BME280;27051;50.376;19.152;2023-05-23T03:04:37;97881.36;;;13.26;53.68
41306;BME280;27051;50.376;19.152;2023-05-23T03:07:04;97884.57;;;13.43;53.76
41306;BME280;27051;50.376;19.152;2023-05-23T03:09:31;97883.48;;;13.53;53.53
41306;BME280;27051;50.376;19.152;2023-05-23T03:11:58;97883.25;;;13.59;53.65
41306;BME280;27051;50.376;19.152;2023-05-23T03:14:24;97883.48;;;13.68;53.60
41306;BME280;27051;50.376;19.152;2023-05-23T03:16:51;97876.74;;;13.73;53.44
41306;BME280;27051;50.376;19.152;2023-05-23T03:19:18;97873.96;;;13.67;53.38
41306;BME280;27051;50.376;19.152;2023-05-23T03:21:45;97871.38;;;13.58;53.43
41306;BME280;27051;50.376;19.152;2023-05-23T03:24:11;97872.33;;;13.50;53.64
41306;BME280;27051;50.376;19.152;2023-05-23T03:26:38;97870.86;;;13.40;53.72
41306;BME280;27051;50.376;19.152;2023-05-23T03:29:04;97868.84;;;13.29;53.74
41306;BME280;27051;50.376;19.152;2023-05-23T03:31:31;97867.27;;;13.31;53.92
41306;BME280;27051;50.376;19.152;2023-05-23T03:33:58;97869.95;;;13.41;54.11
41306;BME280;27051;50.376;19.152;2023-05-23T03:36:25;97867.33;;;13.56;54.15
41306;BME280;27051;50.376;19.152;2023-05-23T03:38:51;97868.33;;;13.61;53.87
41306;BME280;27051;50.376;19.152;2023-05-23T03:41:18;97866.88;;;13.58;53.93
41306;BME280;27051;50.376;19.152;2023-05-23T03:43:47;97870.81;;;13.61;53.98
41306;BME280;27051;50.376;19.152;2023-05-23T03:46:14;97871.36;;;13.68;54.08
41306;BME280;27051;50.376;19.152;2023-05-23T03:48:40;97869.05;;;13.70;54.03
41306;BME280;27051;50.376;19.152;2023-05-23T03:51:10;97873.42;;;13.73;54.12
41306;BME280;27051;50.376;19.152;2023-05-23T03:53:37;97871.55;;;13.66;54.17
41306;BME280;27051;50.376;19.152;2023-05-23T03:56:04;97871.60;;;13.75;54.26
41306;BME280;27051;50.376;19.152;2023-05-23T03:58:32;97869.37;;;13.81;54.17
41306;BME280;27051;50.376;19.152;2023-05-23T04:00:58;97866.48;;;13.79;54.06
41306;BME280;27051;50.376;19.152;2023-05-23T04:03:25;97866.60;;;13.76;54.19
41306;BME280;27051;50.376;19.152;2023-05-23T04:05:52;97866.92;;;13.78;54.27
41306;BME280;27051;50.376;19.152;2023-05-23T04:08:18;97868.06;;;13.93;54.46
41306;BME280;27051;50.376;19.152;2023-05-23T04:10:45;97866.85;;;14.07;54.35
41306;BME280;27051;50.376;19.152;2023-05-23T04:13:12;97864.02;;;14.16;54.21
41306;BME280;27051;50.376;19.152;2023-05-23T04:15:38;97865.10;;;14.22;54.31
41306;BME280;27051;50.376;19.152;2023-05-23T04:18:05;97866.30;;;14.32;54.27
41306;BME280;27051;50.376;19.152;2023-05-23T04:20:32;97869.20;;;14.36;54.14
41306;BME280;27051;50.376;19.152;2023-05-23T04:22:59;97872.41;;;14.41;54.29
41306;BME280;27051;50.376;19.152;2023-05-23T04:25:26;97866.50;;;14.50;54.13
41306;BME280;27051;50.376;19.152;2023-05-23T04:27:52;97867.28;;;14.56;54.25
41306;BME280;27051;50.376;19.152;2023-05-23T04:30:19;97862.59;;;14.67;54.27
41306;BME280;27051;50.376;19.152;2023-05-23T04:32:46;97860.73;;;14.74;54.17
41306;BME280;27051;50.376;19.152;2023-05-23T04:35:13;97857.98;;;14.77;54.22
41306;BME280;27051;50.376;19.152;2023-05-23T04:37:39;97860.89;;;14.82;54.22
41306;BME280;27051;50.376;19.152;2023-05-23T04:40:06;97858.84;;;14.88;54.11
41306;BME280;27051;50.376;19.152;2023-05-23T04:42:33;97851.43;;;14.96;53.98
41306;BME280;27051;50.376;19.152;2023-05-23T04:45:00;97851.30;;;14.99;54.00
41306;BME280;27051;50.376;19.152;2023-05-23T04:47:27;97848.83;;;15.09;53.98
41306;BME280;27051;50.376;19.152;2023-05-23T04:49:54;97850.14;;;15.19;53.86
41306;BME280;27051;50.376;19.152;2023-05-23T04:52:21;97848.81;;;15.28;53.84
41306;BME280;27051;50.376;19.152;2023-05-23T04:54:48;97847.20;;;15.40;53.87
41306;BME280;27051;50.376;19.152;2023-05-23T04:57:14;97848.23;;;15.55;54.02
41306;BME280;27051;50.376;19.152;2023-05-23T04:59:41;97847.46;;;15.68;53.94
41306;BME280;27051;50.376;19.152;2023-05-23T05:02:08;97846.80;;;15.71;53.67
41306;BME280;27051;50.376;19.152;2023-05-23T05:04:34;97845.05;;;15.76;53.21
41306;BME280;27051;50.376;19.152;2023-05-23T05:07:01;97839.20;;;15.85;53.36
41306;BME280;27051;50.376;19.152;2023-05-23T05:09:28;97837.08;;;15.94;53.16
41306;BME280;27051;50.376;19.152;2023-05-23T05:11:54;97840.40;;;16.08;53.29
41306;BME280;27051;50.376;19.152;2023-05-23T05:14:21;97840.76;;;16.21;52.95
41306;BME280;27051;50.376;19.152;2023-05-23T05:16:48;97838.23;;;16.31;53.22
41306;BME280;27051;50.376;19.152;2023-05-23T05:19:14;97835.23;;;16.39;52.89
41306;BME280;27051;50.376;19.152;2023-05-23T05:21:44;97833.94;;;16.49;53.19
41306;BME280;27051;50.376;19.152;2023-05-23T05:24:10;97833.88;;;16.58;52.97
41306;BME280;27051;50.376;19.152;2023-05-23T05:26:37;97832.64;;;16.63;52.61
41306;BME280;27051;50.376;19.152;2023-05-23T05:29:04;97834.13;;;16.69;52.71
41306;BME280;27051;50.376;19.152;2023-05-23T05:31:30;97833.73;;;16.74;52.75
41306;BME280;27051;50.376;19.152;2023-05-23T05:33:57;97835.02;;;16.83;52.61
41306;BME280;27051;50.376;19.152;2023-05-23T05:36:23;97833.09;;;16.89;52.50
41306;BME280;27051;50.376;19.152;2023-05-23T05:38:50;97835.50;;;16.97;52.47
41306;BME280;27051;50.376;19.152;2023-05-23T05:41:17;97836.42;;;17.09;52.64
41306;BME280;27051;50.376;19.152;2023-05-23T05:43:43;97836.89;;;17.18;52.29
41306;BME280;27051;50.376;19.152;2023-05-23T05:46:10;97835.11;;;17.19;51.64
41306;BME280;27051;50.376;19.152;2023-05-23T05:48:37;97827.11;;;17.21;51.92
41306;BME280;27051;50.376;19.152;2023-05-23T05:51:04;97831.52;;;17.32;52.04
41306;BME280;27051;50.376;19.152;2023-05-23T05:53:30;97832.52;;;17.44;52.01
41306;BME280;27051;50.376;19.152;2023-05-23T05:55:57;97831.20;;;17.53;51.82
41306;BME280;27051;50.376;19.152;2023-05-23T05:58:23;97829.22;;;17.62;51.64
41306;BME280;27051;50.376;19.152;2023-05-23T06:00:50;97831.55;;;17.66;51.64
41306;BME280;27051;50.376;19.152;2023-05-23T06:03:17;97832.06;;;17.79;51.83
41306;BME280;27051;50.376;19.152;2023-05-23T06:05:43;97831.48;;;17.94;51.54
41306;BME280;27051;50.376;19.152;2023-05-23T06:08:10;97830.28;;;18.04;51.51
41306;BME280;27051;50.376;19.152;2023-05-23T06:10:37;97822.05;;;18.19;51.76
41306;BME280;27051;50.376;19.152;2023-05-23T06:13:04;97818.58;;;18.30;51.35
41306;BME280;27051;50.376;19.152;2023-05-23T06:15:30;97821.18;;;18.40;51.16
41306;BME280;27051;50.376;19.152;2023-05-23T06:17:57;97817.31;;;18.49;50.10
41306;BME280;27051;50.376;19.152;2023-05-23T06:20:23;97817.41;;;18.46;49.56
41306;BME280;27051;50.376;19.152;2023-05-23T06:22:50;97814.90;;;18.49;49.91
41306;BME280;27051;50.376;19.152;2023-05-23T06:25:17;97811.00;;;18.52;49.27
41306;BME280;27051;50.376;19.152;2023-05-23T06:27:43;97812.89;;;18.48;49.03
41306;BME280;27051;50.376;19.152;2023-05-23T06:30:10;97808.16;;;18.57;49.82
41306;BME280;27051;50.376;19.152;2023-05-23T06:32:37;97806.04;;;18.75;49.31
41306;BME280;27051;50.376;19.152;2023-05-23T06:35:04;97803.22;;;18.79;48.38
41306;BME280;27051;50.376;19.152;2023-05-23T06:37:31;97803.98;;;18.80;48.73
41306;BME280;27051;50.376;19.152;2023-05-23T06:39:58;97801.86;;;18.95;49.16
41306;BME280;27051;50.376;19.152;2023-05-23T06:42:25;97801.38;;;19.14;49.29
41306;BME280;27051;50.376;19.152;2023-05-23T06:44:52;97801.38;;;19.30;48.14
41306;BME280;27051;50.376;19.152;2023-05-23T06:47:19;97801.52;;;19.33;48.14
41306;BME280;27051;50.376;19.152;2023-05-23T06:49:45;97802.44;;;19.42;48.18
41306;BME280;27051;50.376;19.152;2023-05-23T06:52:12;97805.38;;;19.50;47.70
41306;BME280;27051;50.376;19.152;2023-05-23T06:54:39;97798.88;;;19.55;47.89
41306;BME280;27051;50.376;19.152;2023-05-23T06:57:05;97795.94;;;19.68;47.99
41306;BME280;27051;50.376;19.152;2023-05-23T06:59:32;97792.61;;;19.81;47.43
41306;BME280;27051;50.376;19.152;2023-05-23T07:01:58;97794.29;;;19.98;47.11
41306;BME280;27051;50.376;19.152;2023-05-23T07:04:25;97792.27;;;20.10;47.13
41306;BME280;27051;50.376;19.152;2023-05-23T07:06:52;97790.98;;;20.24;47.13
41306;BME280;27051;50.376;19.152;2023-05-23T07:09:19;97790.86;;;20.28;46.66
41306;BME280;27051;50.376;19.152;2023-05-23T07:11:46;97788.03;;;20.34;46.35
41306;BME280;27051;50.376;19.152;2023-05-23T07:14:12;97789.79;;;20.48;46.46
41306;BME280;27051;50.376;19.152;2023-05-23T07:16:39;97788.80;;;20.59;46.76
41306;BME280;27051;50.376;19.152;2023-05-23T07:19:05;97786.08;;;20.73;46.42
41306;BME280;27051;50.376;19.152;2023-05-23T07:21:32;97785.09;;;20.87;46.35
41306;BME280;27051;50.376;19.152;2023-05-23T07:23:59;97782.50;;;21.02;46.31
41306;BME280;27051;50.376;19.152;2023-05-23T07:26:25;97779.30;;;21.16;46.10
41306;BME280;27051;50.376;19.152;2023-05-23T07:28:52;97777.67;;;21.29;46.22
41306;BME280;27051;50.376;19.152;2023-05-23T07:31:18;97778.94;;;21.46;46.55
41306;BME280;27051;50.376;19.152;2023-05-23T07:33:45;97776.55;;;21.61;46.32
41306;BME280;27051;50.376;19.152;2023-05-23T07:36:12;97772.70;;;21.70;45.75
41306;BME280;27051;50.376;19.152;2023-05-23T07:38:38;97775.45;;;21.77;45.21
41306;BME280;27051;50.376;19.152;2023-05-23T07:41:05;97778.86;;;21.86;45.33
41306;BME280;27051;50.376;19.152;2023-05-23T07:43:31;97775.81;;;21.91;45.21
41306;BME280;27051;50.376;19.152;2023-05-23T07:45:58;97778.56;;;22.01;45.47
41306;BME280;27051;50.376;19.152;2023-05-23T07:48:25;97775.34;;;22.17;45.62
41306;BME280;27051;50.376;19.152;2023-05-23T07:50:52;97775.91;;;22.31;45.02
41306;BME280;27051;50.376;19.152;2023-05-23T07:53:18;97772.17;;;22.42;45.19
41306;BME280;27051;50.376;19.152;2023-05-23T07:55:45;97772.56;;;22.59;45.24
41306;BME280;27051;50.376;19.152;2023-05-23T07:58:12;97772.67;;;22.74;45.22
41306;BME280;27051;50.376;19.152;2023-05-23T08:00:38;97773.36;;;22.87;44.68
41306;BME280;27051;50.376;19.152;2023-05-23T08:03:05;97767.73;;;22.94;44.91
41306;BME280;27051;50.376;19.152;2023-05-23T08:05:31;97763.23;;;23.08;44.62
41306;BME280;27051;50.376;19.152;2023-05-23T08:07:58;97765.48;;;23.24;44.70
41306;BME280;27051;50.376;19.152;2023-05-23T08:10:25;97765.41;;;23.36;44.22
41306;BME280;27051;50.376;19.152;2023-05-23T08:12:51;97762.38;;;23.47;43.92
41306;BME280;27051;50.376;19.152;2023-05-23T08:15:18;97764.13;;;23.60;43.98
41306;BME280;27051;50.376;19.152;2023-05-23T08:17:44;97759.34;;;23.78;43.52
41306;BME280;27051;50.376;19.152;2023-05-23T08:20:11;97750.91;;;23.94;43.46
41306;BME280;27051;50.376;19.152;2023-05-23T08:22:38;97754.63;;;24.09;43.05
41306;BME280;27051;50.376;19.152;2023-05-23T08:25:05;97754.65;;;24.28;43.30
41306;BME280;27051;50.376;19.152;2023-05-23T08:27:31;97755.36;;;24.44;42.44
41306;BME280;27051;50.376;19.152;2023-05-23T08:29:58;97753.89;;;24.54;42.35
41306;BME280;27051;50.376;19.152;2023-05-23T08:32:25;97752.25;;;24.59;41.38
41306;BME280;27051;50.376;19.152;2023-05-23T08:34:51;97755.36;;;24.63;41.58
41306;BME280;27051;50.376;19.152;2023-05-23T08:37:18;97752.07;;;24.70;41.74
41306;BME280;27051;50.376;19.152;2023-05-23T08:39:44;97754.55;;;24.80;41.59
41306;BME280;27051;50.376;19.152;2023-05-23T08:42:12;97755.54;;;24.86;41.47
41306;BME280;27051;50.376;19.152;2023-05-23T08:44:38;97751.47;;;24.93;41.49
41306;BME280;27051;50.376;19.152;2023-05-23T08:47:07;97743.93;;;25.00;41.43
41306;BME280;27051;50.376;19.152;2023-05-23T08:49:34;97743.77;;;25.09;41.04
41306;BME280;27051;50.376;19.152;2023-05-23T08:52:02;97745.17;;;25.17;40.22
41306;BME280;27051;50.376;19.152;2023-05-23T08:54:29;97743.10;;;25.27;40.77
41306;BME280;27051;50.376;19.152;2023-05-23T08:56:57;97738.84;;;25.46;40.40
41306;BME280;27051;50.376;19.152;2023-05-23T08:59:25;97739.58;;;25.69;40.13
41306;BME280;27051;50.376;19.152;2023-05-23T09:01:54;97744.17;;;25.88;39.03
41306;BME280;27051;50.376;19.152;2023-05-23T09:04:21;97738.52;;;26.00;39.23
41306;BME280;27051;50.376;19.152;2023-05-23T09:06:47;97736.65;;;26.27;39.31
41306;BME280;27051;50.376;19.152;2023-05-23T09:09:14;97738.36;;;26.58;39.13
41306;BME280;27051;50.376;19.152;2023-05-23T09:11:41;97733.11;;;26.96;38.20
41306;BME280;27051;50.376;19.152;2023-05-23T09:14:08;97730.42;;;27.28;37.81
41306;BME280;27051;50.376;19.152;2023-05-23T09:16:34;97734.48;;;27.64;37.52
41306;BME280;27051;50.376;19.152;2023-05-23T09:19:12;97731.48;;;27.97;37.41
41306;BME280;27051;50.376;19.152;2023-05-23T09:21:45;97728.20;;;28.46;36.82
41306;BME280;27051;50.376;19.152;2023-05-23T09:24:12;97724.98;;;28.95;36.43
41306;BME280;27051;50.376;19.152;2023-05-23T09:26:38;97725.98;;;29.38;35.84
41306;BME280;27051;50.376;19.152;2023-05-23T09:29:06;97722.52;;;29.88;35.27
41306;BME280;27051;50.376;19.152;2023-05-23T09:31:33;97719.31;;;30.34;34.35
41306;BME280;27051;50.376;19.152;2023-05-23T09:33:59;97721.06;;;30.69;34.20
41306;BME280;27051;50.376;19.152;2023-05-23T09:36:27;97722.47;;;31.03;33.00
41306;BME280;27051;50.376;19.152;2023-05-23T09:38:55;97720.19;;;31.25;32.83
41306;BME280;27051;50.376;19.152;2023-05-23T09:41:22;97720.68;;;31.56;31.58
41306;BME280;27051;50.376;19.152;2023-05-23T09:43:53;97717.45;;;31.79;31.15
41306;BME280;27051;50.376;19.152;2023-05-23T09:46:20;97713.73;;;32.03;30.65
41306;BME280;27051;50.376;19.152;2023-05-23T09:48:48;97712.82;;;32.37;30.66
41306;BME280;27051;50.376;19.152;2023-05-23T09:51:17;97709.06;;;32.67;30.32
41306;BME280;27051;50.376;19.152;2023-05-23T09:53:45;97709.26;;;33.01;29.52
41306;BME280;27051;50.376;19.152;2023-05-23T09:56:12;97708.42;;;33.19;28.35
41306;BME280;27051;50.376;19.152;2023-05-23T09:58:39;97706.30;;;33.44;28.76
41306;BME280;27051;50.376;19.152;2023-05-23T10:01:09;97700.68;;;33.87;28.44
41306;BME280;27051;50.376;19.152;2023-05-23T10:03:51;97702.85;;;34.01;27.30
41306;BME280;27051;50.376;19.152;2023-05-23T10:06:24;97701.25;;;34.06;26.65
41306;BME280;27051;50.376;19.152;2023-05-23T10:09:03;97701.08;;;33.96;25.27
41306;BME280;27051;50.376;19.152;2023-05-23T10:14:01;97701.70;;;33.96;26.21
41306;BME280;27051;50.376;19.152;2023-05-23T10:19:56;97690.98;;;34.72;25.94
41306;BME280;27051;50.376;19.152;2023-05-23T10:22:24;97691.92;;;35.13;25.35
41306;BME280;27051;50.376;19.152;2023-05-23T10:24:51;97691.36;;;35.34;25.26
41306;BME280;27051;50.376;19.152;2023-05-23T10:27:19;97685.45;;;35.53;24.73
41306;BME280;27051;50.376;19.152;2023-05-23T10:29:46;97687.11;;;35.72;25.33
41306;BME280;27051;50.376;19.152;2023-05-23T10:32:13;97684.83;;;36.02;24.67
41306;BME280;27051;50.376;19.152;2023-05-23T10:34:50;97684.41;;;36.25;24.20
41306;BME280;27051;50.376;19.152;2023-05-23T10:37:32;97682.91;;;36.38;23.82
41306;BME280;27051;50.376;19.152;2023-05-23T10:40:19;97683.36;;;36.53;22.98
41306;BME280;27051;50.376;19.152;2023-05-23T10:42:50;97683.52;;;36.52;23.05
41306;BME280;27051;50.376;19.152;2023-05-23T10:45:22;97680.23;;;36.46;23.50
41306;BME280;27051;50.376;19.152;2023-05-23T10:47:50;97681.35;;;36.70;23.49
41306;BME280;27051;50.376;19.152;2023-05-23T10:50:34;97675.93;;;36.92;22.83
41306;BME280;27051;50.376;19.152;2023-05-23T10:53:03;97674.89;;;37.07;23.09
41306;BME280;27051;50.376;19.152;2023-05-23T10:55:35;97671.91;;;37.37;22.65
41306;BME280;27051;50.376;19.152;2023-05-23T10:58:18;97665.42;;;37.49;22.69
41306;BME280;27051;50.376;19.152;2023-05-23T11:01:12;97664.10;;;37.60;22.30
41306;BME280;27051;50.376;19.152;2023-05-23T11:06:36;97657.91;;;37.86;21.74
41306;BME280;27051;50.376;19.152;2023-05-23T11:09:06;97659.67;;;38.02;21.75
41306;BME280;27051;50.376;19.152;2023-05-23T11:12:06;97661.96;;;38.45;21.40
41306;BME280;27051;50.376;19.152;2023-05-23T11:19:38;97653.23;;;39.55;20.58
41306;BME280;27051;50.376;19.152;2023-05-23T11:22:08;97652.02;;;39.97;20.65
41306;BME280;27051;50.376;19.152;2023-05-23T11:24:54;97648.41;;;40.54;19.80
41306;BME280;27051;50.376;19.152;2023-05-23T11:32:33;97638.60;;;41.22;18.87
41306;BME280;27051;50.376;19.152;2023-05-23T11:35:02;97633.44;;;41.60;19.12
41306;BME280;27051;50.376;19.152;2023-05-23T11:37:30;97632.00;;;41.92;18.60
41306;BME280;27051;50.376;19.152;2023-05-23T11:39:57;97625.09;;;42.42;18.26
41306;BME280;27051;50.376;19.152;2023-05-23T11:42:24;97624.10;;;42.50;17.99
41306;BME280;27051;50.376;19.152;2023-05-23T11:44:51;97620.11;;;41.95;18.37
41306;BME280;27051;50.376;19.152;2023-05-23T11:47:19;97615.23;;;42.17;18.34
41306;BME280;27051;50.376;19.152;2023-05-23T11:49:46;97614.81;;;42.62;18.22
41306;BME280;27051;50.376;19.152;2023-05-23T11:52:13;97609.44;;;43.13;17.91
41306;BME280;27051;50.376;19.152;2023-05-23T11:54:41;97608.23;;;43.79;17.20
41306;BME280;27051;50.376;19.152;2023-05-23T11:57:09;97611.60;;;43.72;16.83
41306;BME280;27051;50.376;19.152;2023-05-23T11:59:37;97615.56;;;43.06;17.10
41306;BME280;27051;50.376;19.152;2023-05-23T12:02:05;97614.70;;;42.83;17.48
41306;BME280;27051;50.376;19.152;2023-05-23T12:04:33;97613.75;;;42.63;17.58
41306;BME280;27051;50.376;19.152;2023-05-23T12:07:03;97612.50;;;42.47;17.63
41306;BME280;27051;50.376;19.152;2023-05-23T12:09:30;97612.02;;;41.96;17.48
41306;BME280;27051;50.376;19.152;2023-05-23T12:11:57;97613.70;;;41.34;17.81
41306;BME280;27051;50.376;19.152;2023-05-23T12:14:27;97617.84;;;40.76;17.93
41306;BME280;27051;50.376;19.152;2023-05-23T12:16:54;97611.79;;;39.72;18.45
41306;BME280;27051;50.376;19.152;2023-05-23T12:19:21;97615.83;;;38.91;18.64
41306;BME280;27051;50.376;19.152;2023-05-23T12:21:48;97614.04;;;38.15;18.76
41306;BME280;27051;50.376;19.152;2023-05-23T12:24:17;97610.88;;;37.34;19.44
41306;BME280;27051;50.376;19.152;2023-05-23T12:26:57;97614.69;;;36.63;19.95
41306;BME280;27051;50.376;19.152;2023-05-23T12:29:31;97620.26;;;35.90;20.92
41306;BME280;27051;50.376;19.152;2023-05-23T12:31:59;97613.59;;;35.19;21.61
41306;BME280;27051;50.376;19.152;2023-05-23T12:34:26;97611.89;;;34.42;21.81
41306;BME280;27051;50.376;19.152;2023-05-23T12:36:57;97613.02;;;33.78;22.57
41306;BME280;27051;50.376;19.152;2023-05-23T12:39:25;97609.66;;;33.24;23.08
41306;BME280;27051;50.376;19.152;2023-05-23T12:41:54;97614.59;;;32.78;23.18
41306;BME280;27051;50.376;19.152;2023-05-23T12:44:21;97629.89;;;32.17;23.91
41306;BME280;27051;50.376;19.152;2023-05-23T12:46:48;97635.27;;;31.74;24.29
41306;BME280;27051;50.376;19.152;2023-05-23T12:49:14;97644.19;;;31.16;24.55
41306;BME280;27051;50.376;19.152;2023-05-23T12:51:41;97651.55;;;30.37;25.26
41306;BME280;27051;50.376;19.152;2023-05-23T12:54:08;97660.80;;;29.82;25.74
41306;BME280;27051;50.376;19.152;2023-05-23T12:56:34;97662.92;;;29.05;26.57
41306;BME280;27051;50.376;19.152;2023-05-23T12:59:01;97668.72;;;28.31;27.78
41306;BME280;27051;50.376;19.152;2023-05-23T13:01:29;97678.46;;;27.55;28.62
41306;BME280;27051;50.376;19.152;2023-05-23T13:03:55;97677.66;;;26.92;29.56
41306;BME280;27051;50.376;19.152;2023-05-23T13:06:22;97670.98;;;26.31;30.33
41306;BME280;27051;50.376;19.152;2023-05-23T13:08:49;97676.91;;;25.84;30.86
41306;BME280;27051;50.376;19.152;2023-05-23T13:11:16;97679.23;;;25.44;31.61
41306;BME280;27051;50.376;19.152;2023-05-23T13:13:43;97682.80;;;25.05;32.16
41306;BME280;27051;50.376;19.152;2023-05-23T13:16:09;97685.52;;;24.80;33.28
41306;BME280;27051;50.376;19.152;2023-05-23T13:18:36;97689.59;;;24.49;34.02